Time;durP1;ratioP1;P1;durP2;ratioP2;P2;SDS_P1;SDS_P2;PMS_P1;PMS_P2;Temp;Humidity;BMP_temperature;BMP_pressure;BME280_temperature;BME280_humidity;BME280_pressure;Samples;Min_cycle;Max_cycle;Signal;HPM_P1;HPM_P2
2024/03/18 00:00:15;;;;;;;3.17;1.90;;;;;;;13.14;63.57;97280.63;5007862;28;20501;-80
2024/03/18 00:02:45;;;;;;;1.98;1.50;;;;;;;13.14;64.22;97278.00;5000015;28;20112;-79
2024/03/18 00:05:12;;;;;;;2.55;1.70;;;;;;;13.13;63.92;97272.00;4985218;28;20036;-79
2024/03/18 00:07:38;;;;;;;1.90;1.70;;;;;;;13.11;63.89;97277.47;4977704;28;20036;-80
2024/03/18 00:10:04;;;;;;;2.22;1.95;;;;;;;13.14;64.12;97278.78;4964079;28;20108;-79
2024/03/18 00:12:30;;;;;;;2.10;1.67;;;;;;;13.14;64.27;97270.94;4993830;28;20038;-80
2024/03/18 00:14:55;;;;;;;1.63;1.30;;;;;;;13.16;63.81;97268.88;4985867;28;20334;-80
2024/03/18 00:17:20;;;;;;;2.83;1.65;;;;;;;13.14;63.86;97257.88;4983296;28;20030;-80
2024/03/18 00:19:46;;;;;;;1.85;1.33;;;;;;;13.16;64.28;97262.84;4969843;28;20509;-80
2024/03/18 00:22:11;;;;;;;2.38;1.58;;;;;;;13.12;63.45;97262.56;5020568;28;20083;-79
2024/03/18 00:24:37;;;;;;;2.15;1.45;;;;;;;13.06;63.75;97253.94;5000057;28;20029;-79
2024/03/18 00:27:02;;;;;;;1.83;1.60;;;;;;;13.08;63.98;97248.47;4982031;28;20025;-80
2024/03/18 00:29:28;;;;;;;2.55;1.83;;;;;;;13.00;63.80;97247.13;4992083;28;20041;-79
2024/03/18 00:31:53;;;;;;;2.22;1.77;;;;;;;12.99;63.70;97244.75;5002385;28;20026;-79
2024/03/18 00:34:18;;;;;;;2.75;1.58;;;;;;;13.00;63.97;97241.13;4987142;28;20071;-79
2024/03/18 00:36:44;;;;;;;1.60;1.40;;;;;;;12.99;64.05;97239.53;4979168;28;20030;-83
2024/03/18 00:39:09;;;;;;;2.72;1.70;;;;;;;12.97;64.02;97228.56;4978238;28;20036;-82
2024/03/18 00:41:54;;;;;;;3.50;2.80;;;;;;;12.95;64.52;97233.25;4984747;28;20069;-82
2024/03/18 00:44:21;;;;;;;3.22;2.72;;;;;;;12.98;64.60;97228.31;4977030;28;20030;-82
2024/03/18 00:46:47;;;;;;;4.22;3.13;;;;;;;13.17;63.34;97225.97;4981607;28;20039;-82
2024/03/18 00:49:13;;;;;;;3.92;2.90;;;;;;;13.12;63.80;97223.38;4977793;28;20076;-83
2024/03/18 00:51:39;;;;;;;4.15;2.60;;;;;;;13.06;64.03;97219.19;4999302;28;20034;-83
2024/03/18 00:54:05;;;;;;;2.80;2.05;;;;;;;13.01;64.25;97209.50;4965372;28;20604;-83
2024/03/18 00:56:31;;;;;;;3.05;1.90;;;;;;;13.10;63.52;97209.78;4976296;28;20038;-80
2024/03/18 00:58:57;;;;;;;5.82;1.73;;;;;;;13.16;63.54;97208.75;4975585;28;20700;-79
2024/03/18 01:01:22;;;;;;;2.53;1.55;;;;;;;13.20;63.00;97215.00;4966410;28;20025;-79
2024/03/18 01:03:48;;;;;;;3.50;1.98;;;;;;;13.25;63.79;97225.47;4989301;28;20167;-79
2024/03/18 01:06:14;;;;;;;1.75;1.60;;;;;;;13.26;63.60;97213.97;5003060;28;20037;-79
2024/03/18 01:08:39;;;;;;;3.60;1.50;;;;;;;13.33;62.71;97208.50;4997128;28;20029;-83
2024/03/18 01:11:04;;;;;;;3.78;1.80;;;;;;;13.34;63.65;97206.69;5001874;28;20518;-83
2024/03/18 01:13:34;;;;;;;2.95;1.60;;;;;;;13.30;63.77;97212.41;4983114;28;20481;-82
2024/03/18 01:16:00;;;;;;;4.72;1.90;;;;;;;13.32;64.19;97216.63;4972076;28;20414;-83
2024/03/18 01:18:27;;;;;;;2.88;1.73;;;;;;;13.18;63.48;97214.50;4986409;28;20029;-83
2024/03/18 01:20:53;;;;;;;3.58;1.67;;;;;;;13.10;64.68;97205.31;4984740;28;20392;-83
2024/03/18 01:23:19;;;;;;;1.63;1.48;;;;;;;13.13;63.79;97204.03;4990073;28;20030;-82
2024/03/18 01:25:44;;;;;;;2.40;1.90;;;;;;;13.13;64.65;97209.25;4979723;28;20040;-83
2024/03/18 01:28:10;;;;;;;3.63;1.83;;;;;;;13.10;64.80;97199.31;4993045;28;20025;-83
2024/03/18 01:30:35;;;;;;;3.90;1.52;;;;;;;13.13;64.07;97196.19;4992641;28;20033;-79
2024/03/18 01:33:00;;;;;;;3.13;1.77;;;;;;;13.13;64.69;97193.56;4993539;28;20492;-79
2024/03/18 01:35:26;;;;;;;2.80;2.10;;;;;;;13.14;64.36;97174.22;4991274;28;20034;-79
2024/03/18 01:37:51;;;;;;;5.15;1.73;;;;;;;13.15;63.97;97173.19;4992587;28;20478;-80
2024/03/18 01:40:17;;;;;;;2.25;1.30;;;;;;;13.17;64.72;97176.31;5003582;28;20129;-79
2024/03/18 01:42:44;;;;;;;2.25;1.80;;;;;;;13.18;65.01;97172.66;4971755;28;20073;-79
2024/03/18 01:45:09;;;;;;;1.83;1.60;;;;;;;13.16;64.82;97166.91;4990429;28;20026;-82
2024/03/18 01:47:36;;;;;;;1.92;1.40;;;;;;;13.11;64.71;97162.47;4993712;28;20040;-83
2024/03/18 01:50:02;;;;;;;1.90;1.42;;;;;;;13.15;63.90;97159.34;5005888;28;20087;-83
2024/03/18 01:52:27;;;;;;;2.28;1.27;;;;;;;13.08;64.12;97149.13;4979152;28;20038;-82
2024/03/18 01:54:53;;;;;;;1.58;1.40;;;;;;;13.11;64.21;97156.47;4992241;28;20040;-83
2024/03/18 01:57:18;;;;;;;3.42;1.90;;;;;;;13.18;64.34;97162.22;4986866;28;20052;-83
2024/03/18 01:59:44;;;;;;;2.50;1.60;;;;;;;13.26;64.36;97169.53;4989557;28;20466;-83
2024/03/18 02:02:11;;;;;;;3.58;1.80;;;;;;;13.27;63.77;97160.63;4991776;28;20549;-83
2024/03/18 02:04:37;;;;;;;2.13;1.80;;;;;;;13.27;64.00;97160.63;4996906;28;20065;-83
2024/03/18 02:07:18;;;;;;;3.67;2.08;;;;;;;13.29;64.67;97142.06;4978677;28;20164;-83
2024/03/18 02:09:44;;;;;;;3.85;2.25;;;;;;;13.23;63.88;97143.09;4989994;28;20502;-83
2024/03/18 02:12:11;;;;;;;2.15;1.80;;;;;;;13.23;64.13;97143.09;4980183;28;20072;-83
2024/03/18 02:14:36;;;;;;;3.75;2.00;;;;;;;13.32;64.51;97157.25;4980001;28;20107;-83
2024/03/18 02:17:03;;;;;;;3.55;1.88;;;;;;;13.34;63.72;97159.63;4979004;28;20486;-82
2024/03/18 02:19:29;;;;;;;2.60;1.92;;;;;;;13.25;64.46;97148.88;4993891;28;20033;-82
2024/03/18 02:21:54;;;;;;;5.68;2.35;;;;;;;13.30;63.69;97144.41;4987910;28;20080;-83
2024/03/18 02:24:21;;;;;;;3.28;2.30;;;;;;;13.36;63.63;97139.22;4977417;28;20037;-82
2024/03/18 02:26:46;;;;;;;2.78;2.00;;;;;;;13.39;62.58;97144.69;4989670;28;20037;-83
2024/03/18 02:29:12;;;;;;;2.78;2.00;;;;;;;13.34;63.37;97136.09;4979243;28;20125;-83
2024/03/18 02:31:37;;;;;;;3.10;1.90;;;;;;;13.31;63.54;97126.91;4989800;28;20161;-82
2024/03/18 02:34:03;;;;;;;3.88;2.03;;;;;;;13.43;63.69;97132.66;4978914;28;20156;-83
2024/03/18 02:36:28;;;;;;;2.72;2.20;;;;;;;13.51;63.90;97136.59;4976571;28;20048;-79
2024/03/18 02:38:56;;;;;;;4.18;2.40;;;;;;;13.46;63.78;97120.91;4978538;28;20025;-79
2024/03/18 02:41:21;;;;;;;3.10;2.05;;;;;;;13.46;64.00;97129.53;4985874;28;20038;-79
2024/03/18 02:43:47;;;;;;;4.20;1.95;;;;;;;13.44;63.65;97125.63;4984340;28;20120;-79
2024/03/18 02:46:12;;;;;;;2.40;1.90;;;;;;;13.49;64.53;97120.38;4962505;28;20098;-79
2024/03/18 02:48:40;;;;;;;3.28;2.05;;;;;;;13.47;63.61;97118.03;4978432;28;20076;-79
2024/03/18 02:51:06;;;;;;;3.17;1.80;;;;;;;13.44;64.56;97115.16;4993985;28;20042;-82
2024/03/18 02:53:34;;;;;;;2.72;1.88;;;;;;;13.52;64.47;97113.81;4989339;28;20039;-79
2024/03/18 02:56:00;;;;;;;4.28;2.08;;;;;;;13.41;64.75;97105.22;4986641;28;20548;-79
2024/03/18 02:58:25;;;;;;;2.45;1.70;;;;;;;13.40;63.55;97111.47;4988003;28;20074;-79
2024/03/18 03:00:53;;;;;;;3.92;2.20;;;;;;;13.40;63.49;97103.63;4992766;28;20026;-79
2024/03/18 03:03:19;;;;;;;3.40;1.88;;;;;;;13.45;64.42;97111.47;4991026;28;20033;-79
2024/03/18 03:05:47;;;;;;;3.90;1.60;;;;;;;13.46;63.91;97103.38;5007855;28;20120;-79
2024/03/18 03:08:12;;;;;;;2.28;2.03;;;;;;;13.50;64.64;97106.22;5001885;28;20097;-79
2024/03/18 03:10:39;;;;;;;4.07;2.63;;;;;;;13.47;64.05;97093.72;4978466;28;20049;-79
2024/03/18 03:13:05;;;;;;;4.00;2.75;;;;;;;13.50;63.40;97095.78;5005397;28;20108;-80
2024/03/18 03:15:36;;;;;;;3.13;1.98;;;;;;;13.48;63.73;97088.19;4977100;28;20120;-79
2024/03/18 03:18:03;;;;;;;2.97;2.00;;;;;;;13.42;64.18;97094.50;4995299;28;20033;-79
2024/03/18 03:20:30;;;;;;;2.70;1.85;;;;;;;13.46;64.06;97092.13;4999735;28;20522;-79
2024/03/18 03:22:58;;;;;;;2.30;1.83;;;;;;;13.41;63.94;97090.28;5001898;28;20030;-79
2024/03/18 03:25:23;;;;;;;2.65;1.65;;;;;;;13.40;63.70;97093.19;4979212;28;20095;-80
2024/03/18 03:27:48;;;;;;;4.55;2.28;;;;;;;13.43;63.29;97077.72;4967693;28;20030;-79
2024/03/18 03:30:14;;;;;;;3.83;2.67;;;;;;;13.47;63.42;97083.25;4987287;28;20167;-79
2024/03/18 03:32:40;;;;;;;2.20;1.90;;;;;;;13.43;63.25;97072.50;4985237;28;20044;-79
2024/03/18 03:35:06;;;;;;;3.28;1.80;;;;;;;13.45;62.83;97090.56;5002342;28;20037;-79
2024/03/18 03:37:36;;;;;;;3.42;2.10;;;;;;;13.48;62.39;97082.97;5000397;28;20436;-82
2024/03/18 03:40:01;;;;;;;5.25;2.35;;;;;;;13.39;63.01;97087.16;5000073;28;20072;-82
2024/03/18 03:42:27;;;;;;;3.28;1.85;;;;;;;13.35;63.39;97085.34;4981146;28;20463;-81
2024/03/18 03:44:52;;;;;;;3.55;2.10;;;;;;;13.39;62.98;97086.41;4988083;28;20521;-83
2024/03/18 03:47:18;;;;;;;2.45;2.15;;;;;;;13.33;63.32;97076.97;4994230;28;20125;-83
2024/03/18 03:49:43;;;;;;;3.05;1.83;;;;;;;13.41;63.03;97073.84;4977471;28;20041;-83
2024/03/18 03:52:08;;;;;;;3.40;2.15;;;;;;;13.35;63.33;97067.03;4992837;28;20429;-79
2024/03/18 03:54:34;;;;;;;3.13;1.98;;;;;;;13.33;63.84;97071.75;4979879;28;20061;-79
2024/03/18 03:56:59;;;;;;;3.67;1.88;;;;;;;13.25;64.04;97054.75;4984029;28;20030;-79
2024/03/18 03:59:24;;;;;;;4.00;2.28;;;;;;;13.25;63.66;97062.59;4975997;28;20022;-79
2024/03/18 04:01:50;;;;;;;3.70;2.58;;;;;;;13.24;64.02;97053.94;4988262;28;20064;-79
2024/03/18 04:04:15;;;;;;;2.90;1.98;;;;;;;13.25;64.06;97055.53;4983287;28;20497;-79
2024/03/18 04:06:41;;;;;;;3.40;2.10;;;;;;;13.22;64.42;97050.81;4991934;28;20044;-79
2024/03/18 04:09:06;;;;;;;2.92;1.98;;;;;;;13.20;64.23;97047.69;4988065;28;20071;-79
2024/03/18 04:11:31;;;;;;;3.13;2.42;;;;;;;13.22;64.43;97053.44;5008547;28;20048;-79
2024/03/18 04:13:57;;;;;;;2.55;1.80;;;;;;;13.22;64.75;97055.28;4986472;28;20529;-79
2024/03/18 04:16:23;;;;;;;2.70;1.88;;;;;;;13.17;64.60;97053.44;4991772;28;20029;-80
2024/03/18 04:18:48;;;;;;;3.05;2.20;;;;;;;13.16;64.27;97051.88;4960237;28;20049;-79
2024/03/18 04:21:13;;;;;;;2.97;1.95;;;;;;;13.16;64.92;97046.66;4957411;28;20075;-79
2024/03/18 04:23:39;;;;;;;3.67;2.15;;;;;;;13.16;64.71;97038.81;4980756;28;20483;-79
2024/03/18 04:26:08;;;;;;;3.53;2.45;;;;;;;13.21;64.40;97044.03;4983691;28;20147;-80
2024/03/18 04:28:34;;;;;;;4.15;3.15;;;;;;;13.16;64.10;97038.00;5020701;28;20033;-79
2024/03/18 04:31:02;;;;;;;4.30;3.45;;;;;;;13.15;63.92;97044.31;4992144;28;20034;-83
2024/03/18 04:33:28;;;;;;;3.28;2.75;;;;;;;13.06;64.88;97047.44;4993677;28;20366;-83
2024/03/18 04:35:53;;;;;;;5.25;3.03;;;;;;;13.03;64.44;97041.97;4990790;28;20033;-82
2024/03/18 04:38:19;;;;;;;4.70;2.70;;;;;;;13.04;64.52;97046.13;4985296;28;20172;-83
2024/03/18 04:40:44;;;;;;;3.15;2.30;;;;;;;13.04;65.00;97043.50;5005043;28;20040;-83
2024/03/18 04:43:10;;;;;;;3.55;2.30;;;;;;;13.00;64.69;97042.47;4982734;28;20033;-83
2024/03/18 04:45:35;;;;;;;3.92;2.70;;;;;;;13.00;64.91;97042.47;5016504;28;20482;-82
2024/03/18 04:48:02;;;;;;;2.47;1.92;;;;;;;13.04;64.49;97048.75;5015477;28;20036;-82
2024/03/18 04:50:27;;;;;;;2.88;2.13;;;;;;;13.08;64.27;97047.97;5009256;28;20022;-79
2024/03/18 04:52:54;;;;;;;2.75;2.20;;;;;;;13.07;64.96;97043.00;4967231;28;20095;-80
2024/03/18 04:55:21;;;;;;;3.13;2.33;;;;;;;13.08;65.04;97047.97;5008702;28;20029;-79
2024/03/18 04:57:50;;;;;;;3.22;2.58;;;;;;;13.18;65.34;97043.75;5012319;28;20125;-79
2024/03/18 05:00:16;;;;;;;2.65;2.40;;;;;;;13.13;64.36;97046.41;4982247;28;20538;-80
2024/03/18 05:02:42;;;;;;;3.63;3.00;;;;;;;13.14;64.78;97047.97;4984246;28;20030;-79
2024/03/18 05:05:09;;;;;;;5.10;3.53;;;;;;;13.20;65.29;97052.91;4997706;28;20125;-80
2024/03/18 05:07:34;;;;;;;5.40;3.75;;;;;;;13.16;65.02;97046.66;4983341;28;20025;-83
2024/03/18 05:10:00;;;;;;;3.58;3.15;;;;;;;13.21;64.15;97045.84;4982296;28;20034;-80
2024/03/18 05:12:25;;;;;;;4.18;3.15;;;;;;;13.23;64.09;97036.72;5013402;28;20107;-79
2024/03/18 05:14:51;;;;;;;5.93;2.78;;;;;;;13.32;63.82;97049.28;4998171;28;20045;-79
2024/03/18 05:17:17;;;;;;;3.97;2.78;;;;;;;13.32;64.39;97057.91;4980825;28;20061;-79
2024/03/18 05:19:42;;;;;;;3.15;2.00;;;;;;;13.30;63.82;97046.91;4991128;28;20037;-79
2024/03/18 05:22:08;;;;;;;2.35;2.05;;;;;;;13.32;64.45;97049.28;4999973;28;20039;-83
2024/03/18 05:24:33;;;;;;;3.45;2.60;;;;;;;13.33;64.10;97040.38;4996582;28;20037;-83
2024/03/18 05:26:59;;;;;;;3.42;2.42;;;;;;;13.35;64.90;97046.09;4981569;28;20033;-83
2024/03/18 05:29:24;;;;;;;4.55;2.47;;;;;;;13.32;64.33;97044.81;4982245;28;20026;-83
2024/03/18 05:31:50;;;;;;;3.00;2.67;;;;;;;13.33;64.52;97050.81;4982050;28;20040;-83
2024/03/18 05:34:15;;;;;;;3.53;2.80;;;;;;;13.35;64.41;97046.91;4974643;28;20060;-83
2024/03/18 05:36:41;;;;;;;3.35;2.25;;;;;;;13.33;64.90;97042.97;4982712;28;20109;-83
2024/03/18 05:39:08;;;;;;;4.50;2.60;;;;;;;13.34;65.09;97041.94;4998457;28;20037;-83
2024/03/18 05:41:35;;;;;;;3.28;2.40;;;;;;;13.29;65.14;97037.47;5003056;28;20156;-83
2024/03/18 05:44:01;;;;;;;2.70;2.22;;;;;;;13.27;65.05;97037.75;4989946;28;20389;-84
2024/03/18 05:46:27;;;;;;;2.90;2.42;;;;;;;13.27;65.26;97032.50;5007766;28;20043;-82
2024/03/18 05:48:52;;;;;;;3.60;2.15;;;;;;;13.28;64.80;97034.09;5001601;28;20025;-83
2024/03/18 05:51:17;;;;;;;3.20;2.70;;;;;;;13.26;65.58;97030.97;4998774;28;20029;-84
2024/03/18 05:53:43;;;;;;;3.92;2.53;;;;;;;13.31;64.87;97040.59;4973330;28;20024;-83
2024/03/18 05:56:08;;;;;;;3.42;2.42;;;;;;;13.33;65.32;97045.59;5000096;28;20037;-80
2024/03/18 05:58:39;;;;;;;3.40;2.45;;;;;;;13.33;64.94;97042.97;4992366;28;20041;-80
2024/03/18 06:01:11;;;;;;;3.03;1.98;;;;;;;13.39;65.45;97041.94;4993930;28;20097;-79
2024/03/18 06:03:39;;;;;;;3.03;2.50;;;;;;;13.38;64.74;97041.13;5015274;28;20040;-79
2024/03/18 06:06:06;;;;;;;4.05;2.60;;;;;;;13.34;64.45;97049.78;4982218;28;20109;-80
2024/03/18 06:08:32;;;;;;;3.60;2.92;;;;;;;13.35;65.24;97044.31;4979488;28;20048;-80
2024/03/18 06:10:57;;;;;;;4.45;3.08;;;;;;;13.35;64.78;97043.50;4983500;28;20046;-79
2024/03/18 06:13:22;;;;;;;3.80;3.08;;;;;;;13.31;64.74;97035.38;4988517;28;20044;-80
2024/03/18 06:15:48;;;;;;;3.25;2.90;;;;;;;13.35;64.97;97041.69;4989985;28;20056;-83
2024/03/18 06:18:13;;;;;;;3.97;2.60;;;;;;;13.34;65.37;97037.50;4994660;28;20041;-83
2024/03/18 06:20:42;;;;;;;3.22;2.50;;;;;;;13.37;65.66;97038.81;4973056;28;20030;-84
2024/03/18 06:23:09;;;;;;;3.75;2.55;;;;;;;13.33;64.58;97030.69;4995709;28;20485;-83
2024/03/18 06:28:19;;;;;;;4.13;2.85;;;;;;;13.30;64.55;97045.06;4988379;28;20034;-83
2024/03/18 06:30:44;;;;;;;3.65;2.70;;;;;;;13.29;65.07;97045.31;4998104;28;20032;-83
2024/03/18 06:33:09;;;;;;;4.05;3.15;;;;;;;13.26;64.95;97033.56;4994130;28;20045;-83
2024/03/18 06:35:35;;;;;;;4.50;3.80;;;;;;;13.28;65.11;97041.94;4980350;28;20455;-83
2024/03/18 06:38:00;;;;;;;3.30;3.00;;;;;;;13.34;65.52;97044.56;4976365;28;20038;-83
2024/03/18 06:40:25;;;;;;;3.47;3.17;;;;;;;13.38;64.67;97050.81;4968893;28;20242;-83
2024/03/18 06:42:52;;;;;;;5.30;3.80;;;;;;;13.36;64.51;97045.06;4967770;28;20390;-84
2024/03/18 06:45:19;;;;;;;4.05;3.63;;;;;;;13.36;65.13;97045.06;4998737;28;20042;-84
2024/03/18 06:47:44;;;;;;;4.35;3.60;;;;;;;13.38;65.19;97048.97;4980507;28;20029;-85
2024/03/18 06:50:13;;;;;;;4.85;3.40;;;;;;;13.38;64.82;97048.19;4994808;28;20570;-83
2024/03/18 06:52:38;;;;;;;5.38;4.20;;;;;;;13.37;64.52;97049.28;4976488;28;20041;-82
2024/03/18 06:55:04;;;;;;;3.97;3.50;;;;;;;13.38;65.40;97048.19;5003186;28;20406;-83
2024/03/18 06:57:30;;;;;;;3.83;3.53;;;;;;;13.41;65.85;97055.53;4995830;28;20133;-84
2024/03/18 06:59:59;;;;;;;4.63;3.42;;;;;;;13.44;65.13;97055.78;4968968;28;20062;-83
2024/03/18 07:02:25;;;;;;;4.68;4.28;;;;;;;13.46;64.62;97058.13;5007043;28;20459;-84
2024/03/18 07:04:51;;;;;;;6.78;5.55;;;;;;;13.48;64.56;97056.03;4991021;28;20556;-84
2024/03/18 07:07:16;;;;;;;8.88;7.97;;;;;;;13.47;65.05;97063.09;4973648;28;20053;-80
2024/03/18 07:09:41;;;;;;;10.50;8.68;;;;;;;13.50;65.57;97061.78;5005111;28;20076;-80
2024/03/18 07:12:07;;;;;;;9.30;8.07;;;;;;;13.45;64.96;97056.56;5004765;28;20029;-80
2024/03/18 07:14:33;;;;;;;7.90;7.20;;;;;;;13.51;65.70;97068.56;4998492;28;20478;-80
2024/03/18 07:16:58;;;;;;;6.57;5.78;;;;;;;13.66;64.59;97076.38;4960502;28;20066;-80
2024/03/18 07:19:23;;;;;;;6.10;5.50;;;;;;;13.67;64.75;97083.19;4978383;28;20037;-80
2024/03/18 07:21:49;;;;;;;7.90;6.93;;;;;;;13.67;65.00;97079.78;4982941;28;20031;-80
2024/03/18 07:24:15;;;;;;;7.63;6.93;;;;;;;13.66;64.57;97075.63;4998876;28;20469;-80
2024/03/18 07:26:41;;;;;;;7.82;6.18;;;;;;;13.71;64.74;97083.44;4976659;28;20033;-80
2024/03/18 07:29:07;;;;;;;6.47;5.72;;;;;;;13.70;64.58;97070.63;4999391;28;20061;-80
2024/03/18 07:31:33;;;;;;;7.68;5.70;;;;;;;13.84;64.94;97071.63;4986992;28;20125;-80
2024/03/18 07:33:59;;;;;;;6.68;5.30;;;;;;;13.90;64.05;97060.09;4972362;28;20029;-80
2024/03/18 07:36:24;;;;;;;8.63;5.32;;;;;;;13.84;64.71;97061.91;4966669;28;20044;-80
2024/03/18 07:38:50;;;;;;;7.20;4.68;;;;;;;13.85;64.67;97062.72;4968782;28;20129;-80
2024/03/18 07:41:15;;;;;;;5.13;4.45;;;;;;;13.89;64.92;97068.97;4991292;28;20521;-80
2024/03/18 07:43:44;;;;;;;4.93;4.15;;;;;;;13.93;64.88;97067.41;4996665;28;20034;-80
2024/03/18 07:46:09;;;;;;;6.85;5.28;;;;;;;13.93;64.61;97064.78;4998623;28;20041;-80
2024/03/18 07:48:35;;;;;;;5.75;3.70;;;;;;;14.01;65.34;97061.59;4997486;28;20030;-80
2024/03/18 07:51:02;;;;;;;5.07;4.28;;;;;;;14.04;64.95;97058.44;4963718;28;20033;-80
2024/03/18 07:53:28;;;;;;;5.15;4.05;;;;;;;14.10;65.04;97061.03;4990359;28;20152;-80
2024/03/18 07:56:00;;;;;;;6.10;4.40;;;;;;;14.21;64.72;97065.19;4986415;28;20025;-80
2024/03/18 07:58:26;;;;;;;5.72;4.22;;;;;;;14.14;64.71;97073.31;4984441;28;20271;-80
2024/03/18 08:00:52;;;;;;;6.13;4.55;;;;;;;14.15;64.90;97061.00;4981282;28;20055;-80
2024/03/18 08:03:17;;;;;;;5.30;4.60;;;;;;;14.17;65.21;97067.56;4982419;28;20030;-80
2024/03/18 08:05:42;;;;;;;6.00;4.57;;;;;;;14.15;64.44;97067.03;4969470;28;20517;-80
2024/03/18 08:08:08;;;;;;;8.35;4.13;;;;;;;14.23;65.40;97073.53;4994365;28;20680;-80
2024/03/18 08:10:33;;;;;;;7.43;4.57;;;;;;;14.24;65.09;97070.66;4964128;28;20120;-80
2024/03/18 08:12:58;;;;;;;5.35;4.35;;;;;;;14.24;65.12;97062.81;4987616;28;20048;-80
2024/03/18 08:15:24;;;;;;;7.03;4.38;;;;;;;14.28;64.55;97070.13;5007939;28;20041;-80
2024/03/18 08:17:49;;;;;;;6.50;4.50;;;;;;;14.24;65.19;97067.25;4980426;28;20026;-84
2024/03/18 08:20:15;;;;;;;6.68;4.30;;;;;;;14.28;64.25;97077.97;4979056;28;20123;-84
2024/03/18 08:22:40;;;;;;;7.57;4.47;;;;;;;14.28;64.43;97075.34;4987898;28;20033;-83
2024/03/18 08:25:08;;;;;;;11.38;6.80;;;;;;;14.24;65.07;97085.59;4975249;28;20034;-82
2024/03/18 08:27:34;;;;;;;9.30;5.32;;;;;;;14.18;64.32;97069.09;4987127;28;20030;-84
2024/03/18 08:29:59;;;;;;;7.00;5.07;;;;;;;14.31;64.44;97086.06;4990270;28;20078;-84
2024/03/18 08:32:25;;;;;;;7.28;5.05;;;;;;;14.22;64.64;97082.44;4974766;28;20087;-84
2024/03/18 08:34:50;;;;;;;6.45;4.40;;;;;;;14.32;65.07;97092.09;4976470;28;20153;-84
2024/03/18 08:37:19;;;;;;;8.68;4.60;;;;;;;14.29;64.65;97088.19;4990662;28;20021;-83
2024/03/18 08:39:47;;;;;;;5.40;4.80;;;;;;;14.27;65.01;97085.03;4982012;28;20036;-83
2024/03/18 08:42:14;;;;;;;8.95;5.07;;;;;;;14.34;64.47;97082.91;4971243;28;20029;-83
2024/03/18 08:44:39;;;;;;;6.90;4.60;;;;;;;14.39;65.26;97088.13;4990220;28;20048;-84
2024/03/18 08:47:04;;;;;;;12.43;6.15;;;;;;;14.40;65.03;97087.06;4984449;28;20382;-84
2024/03/18 08:49:30;;;;;;;7.40;5.38;;;;;;;14.40;64.77;97089.69;4973560;28;20040;-84
2024/03/18 08:51:56;;;;;;;6.18;4.55;;;;;;;14.48;64.91;97092.78;4996165;28;20037;-83
2024/03/18 08:54:22;;;;;;;10.05;6.32;;;;;;;14.37;64.29;97089.44;4981545;28;20041;-84
2024/03/18 08:56:48;;;;;;;6.35;5.70;;;;;;;14.45;64.15;97095.97;4988451;28;20035;-83
2024/03/18 08:59:13;;;;;;;6.47;5.18;;;;;;;14.47;64.67;97101.72;4998797;28;20478;-84
2024/03/18 09:01:38;;;;;;;9.07;5.07;;;;;;;14.53;64.63;97098.00;4967018;28;20037;-84
2024/03/18 09:04:07;;;;;;;6.43;4.80;;;;;;;14.60;64.79;97099.28;4997777;28;20048;-84
2024/03/18 09:06:33;;;;;;;8.43;5.10;;;;;;;14.56;64.29;97092.22;4989599;28;20080;-83
2024/03/18 09:08:58;;;;;;;6.28;5.05;;;;;;;14.67;63.84;97093.75;4999149;28;20433;-84
2024/03/18 09:11:24;;;;;;;9.40;5.18;;;;;;;14.74;64.75;97104.72;5000422;28;20045;-84
2024/03/18 09:13:49;;;;;;;6.60;5.20;;;;;;;14.76;63.81;97094.72;4977373;28;20548;-84
2024/03/18 09:16:14;;;;;;;6.18;4.35;;;;;;;14.77;64.05;97104.16;4978378;28;20034;-85
2024/03/18 09:18:40;;;;;;;6.03;5.40;;;;;;;14.79;63.88;97104.69;4970850;28;20121;-83
2024/03/18 09:21:05;;;;;;;6.18;4.80;;;;;;;14.80;63.79;97097.59;5005165;28;20038;-84
2024/03/18 09:23:31;;;;;;;6.43;5.68;;;;;;;14.81;63.65;97101.00;4982115;28;20037;-83
2024/03/18 09:25:59;;;;;;;7.55;6.03;;;;;;;14.82;65.20;97099.94;5021184;28;20069;-80
2024/03/18 09:28:24;;;;;;;9.82;6.20;;;;;;;14.77;64.94;97093.69;4984600;28;20038;-81
2024/03/18 09:31:03;;;;;;;7.82;5.85;;;;;;;15.00;64.12;97106.38;5004276;28;20037;-84
2024/03/18 09:33:29;;;;;;;8.50;5.68;;;;;;;15.08;65.01;97113.63;5025242;28;20038;-84
2024/03/18 09:35:55;;;;;;;8.32;6.22;;;;;;;15.07;65.03;97110.22;4987293;28;20029;-84
2024/03/18 09:38:20;;;;;;;9.20;5.65;;;;;;;15.14;64.55;97107.28;4974342;28;20033;-84
2024/03/18 09:40:46;;;;;;;8.00;6.78;;;;;;;15.27;64.99;97103.25;4984243;28;20061;-84
2024/03/18 09:43:11;;;;;;;10.45;6.18;;;;;;;15.36;64.58;97104.22;5003782;28;20705;-83
2024/03/18 09:45:37;;;;;;;10.43;7.28;;;;;;;15.34;64.77;97095.84;4983354;28;20071;-85
2024/03/18 09:48:04;;;;;;;7.45;6.25;;;;;;;15.65;64.37;97100.81;4970338;28;20393;-81
2024/03/18 09:50:31;;;;;;;8.52;5.88;;;;;;;15.93;63.77;97107.06;5004784;28;20037;-80
2024/03/18 09:52:57;;;;;;;6.13;4.88;;;;;;;16.18;63.82;97103.38;4991233;28;20125;-80
2024/03/18 09:55:27;;;;;;;9.23;5.65;;;;;;;16.48;63.13;97098.75;5003427;28;20033;-81
2024/03/18 09:57:55;;;;;;;7.05;5.00;;;;;;;16.67;62.31;97098.75;4969027;28;20029;-81
2024/03/18 10:00:21;;;;;;;12.13;6.38;;;;;;;16.70;62.64;97103.44;5005984;28;20036;-81
2024/03/18 10:02:47;;;;;;;6.57;4.93;;;;;;;16.71;61.78;97088.44;5001071;28;20394;-81
2024/03/18 10:05:13;;;;;;;57.00;28.30;;;;;;;16.64;60.81;97097.50;5006031;28;20404;-81
2024/03/18 10:07:40;;;;;;;14.88;9.32;;;;;;;16.64;61.14;97101.97;4989775;28;20037;-81
2024/03/18 10:10:14;;;;;;;6.20;4.70;;;;;;;16.42;59.95;97102.53;4998523;28;20430;-81
2024/03/18 10:12:39;;;;;;;5.72;3.88;;;;;;;16.31;60.91;97106.34;5002704;28;20057;-81
2024/03/18 10:15:05;;;;;;;15.65;9.23;;;;;;;16.23;61.03;97105.16;4985407;28;20076;-81
2024/03/18 10:17:30;;;;;;;10.27;6.03;;;;;;;16.35;61.04;97109.97;4999040;28;20060;-79
2024/03/18 10:19:57;;;;;;;8.60;5.18;;;;;;;16.28;61.24;97123.47;5006158;28;20491;-80
2024/03/18 10:22:23;;;;;;;6.10;4.43;;;;;;;16.34;61.53;97111.81;4972696;28;20033;-81
2024/03/18 10:24:49;;;;;;;6.30;4.35;;;;;;;16.36;61.19;97116.81;4982966;28;20036;-81
2024/03/18 10:27:15;;;;;;;6.68;4.28;;;;;;;16.33;61.92;97131.31;4995857;28;20030;-79
2024/03/18 10:29:40;;;;;;;5.95;4.22;;;;;;;16.45;61.32;97128.22;5001073;28;20501;-80
2024/03/18 10:32:25;;;;;;;6.20;5.28;;;;;;;16.57;61.33;97135.69;4987047;28;20029;-80
2024/03/18 10:34:51;;;;;;;8.30;6.03;;;;;;;16.41;60.71;97143.00;4985247;28;20041;-81
2024/03/18 10:37:21;;;;;;;7.35;5.75;;;;;;;16.39;61.27;97130.16;4996788;28;20891;-85
2024/03/18 10:39:50;;;;;;;8.95;6.10;;;;;;;16.33;60.62;97147.06;5006336;28;20037;-81
2024/03/18 10:42:17;;;;;;;6.38;5.15;;;;;;;16.50;60.28;97138.69;5004671;28;20026;-84
2024/03/18 10:44:49;;;;;;;10.95;7.25;;;;;;;16.33;59.64;97147.06;4992162;28;20397;-84
2024/03/18 10:47:14;;;;;;;6.50;5.65;;;;;;;16.31;60.12;97140.50;5003866;28;20037;-83
2024/03/18 10:49:40;;;;;;;6.28;5.30;;;;;;;16.33;59.72;97141.00;4966691;28;20030;-85
2024/03/18 10:52:07;;;;;;;8.10;5.82;;;;;;;16.34;59.68;97147.84;4987219;28;20175;-84
2024/03/18 10:54:33;;;;;;;6.15;4.97;;;;;;;16.43;60.25;97148.75;4988507;28;20033;-85
2024/03/18 10:56:58;;;;;;;6.60;5.20;;;;;;;16.51;59.06;97142.09;4992580;28;20033;-85
2024/03/18 10:59:24;;;;;;;6.85;5.30;;;;;;;16.69;59.20;97148.41;4994363;28;20478;-84
2024/03/18 11:01:49;;;;;;;6.72;5.22;;;;;;;16.80;59.98;97149.84;4991714;28;20044;-83
2024/03/18 11:04:28;;;;;;;5.53;4.13;;;;;;;16.88;58.89;97156.34;4984930;28;20026;-83
2024/03/18 11:06:57;;;;;;;5.70;4.93;;;;;;;16.91;60.10;97151.28;4986987;28;20116;-85
2024/03/18 11:09:23;;;;;;;8.27;5.35;;;;;;;16.93;59.45;97157.06;4984721;28;20052;-83
2024/03/18 11:11:49;;;;;;;5.20;4.22;;;;;;;16.80;59.16;97161.16;4997995;28;20034;-84
2024/03/18 11:14:28;;;;;;;5.05;4.55;;;;;;;16.94;58.89;97177.03;4976791;28;20503;-83
2024/03/18 11:16:54;;;;;;;7.15;4.97;;;;;;;16.81;57.90;97172.44;4970690;28;20481;-84
2024/03/18 11:19:24;;;;;;;5.47;4.13;;;;;;;16.91;58.96;97171.56;4970413;28;20037;-85
2024/03/18 11:22:04;;;;;;;7.47;4.30;;;;;;;16.92;56.92;97173.13;4987061;28;20033;-84
2024/03/18 11:24:32;;;;;;;5.68;4.85;;;;;;;16.96;57.22;97161.72;4996312;28;20030;-85
2024/03/18 11:27:00;;;;;;;8.88;4.45;;;;;;;17.04;57.69;97163.72;4963876;28;20116;-85
2024/03/18 11:29:38;;;;;;;4.75;4.15;;;;;;;17.45;56.38;97164.16;4982777;28;20036;-82
2024/03/18 11:32:04;;;;;;;4.63;3.53;;;;;;;17.61;56.67;97173.34;4985217;28;20061;-85